Time;durP1;ratioP1;P1;durP2;ratioP2;P2;SDS_P1;SDS_P2;PMS_P1;PMS_P2;Temp;Humidity;BMP_temperature;BMP_pressure;BME280_temperature;BME280_humidity;BME280_pressure;Samples;Min_cycle;Max_cycle;Signal;HPM_P1;HPM_P2
2022/10/27 00:01:03;;;;;;;22.48;8.63;;;;;;;12.11;100.00;102032.66;5072561;28;20051;-45
2022/10/27 00:03:29;;;;;;;26.65;9.82;;;;;;;12.05;100.00;102027.22;5073001;28;20121;-45
2022/10/27 00:05:54;;;;;;;23.90;9.75;;;;;;;12.01;100.00;102030.50;5072251;28;20064;-44
2022/10/27 00:08:21;;;;;;;27.92;9.73;;;;;;;11.97;100.00;102033.78;5073320;28;20025;-46
2022/10/27 00:11:00;;;;;;;28.27;11.90;;;;;;;12.03;100.00;102034.00;5073377;28;20025;-46
2022/10/27 00:13:26;;;;;;;22.15;10.63;;;;;;;12.05;100.00;102034.97;5072101;28;20107;-47
2022/10/27 00:15:59;;;;;;;26.73;11.60;;;;;;;12.07;100.00;102041.09;5072863;28;20016;-47
2022/10/27 00:18:25;;;;;;;25.65;12.07;;;;;;;12.15;100.00;102044.88;5072761;28;20050;-45
2022/10/27 00:21:05;;;;;;;31.23;12.98;;;;;;;12.14;100.00;102037.06;5071977;28;20028;-46
2022/10/27 00:23:31;;;;;;;26.35;11.13;;;;;;;12.08;100.00;102036.81;5072826;28;20098;-47
2022/10/27 00:25:57;;;;;;;32.33;12.70;;;;;;;12.11;100.00;102027.50;5072851;28;20032;-44
2022/10/27 00:28:23;;;;;;;29.15;11.68;;;;;;;12.02;100.00;102037.44;5071856;28;20085;-46
2022/10/27 00:30:56;;;;;;;28.70;11.88;;;;;;;11.94;100.00;102043.94;5072665;28;20029;-43
2022/10/27 00:33:21;;;;;;;22.83;10.48;;;;;;;11.88;100.00;102039.38;5072592;28;20063;-44
2022/10/27 00:35:46;;;;;;;26.85;11.23;;;;;;;11.83;100.00;102040.88;5072280;28;20067;-46
2022/10/27 00:38:12;;;;;;;22.35;11.63;;;;;;;11.79;100.00;102047.63;5072692;28;20404;-47
2022/10/27 00:40:37;;;;;;;29.00;11.90;;;;;;;11.70;100.00;102049.81;5072242;28;20028;-46
2022/10/27 00:43:25;;;;;;;28.40;12.55;;;;;;;11.72;100.00;102042.13;5072012;28;20024;-46
2022/10/27 00:45:51;;;;;;;33.92;14.93;;;;;;;11.68;100.00;102051.41;5072663;28;20028;-46
2022/10/27 00:48:16;;;;;;;29.45;13.82;;;;;;;11.73;100.00;102047.34;5071769;28;20035;-46
2022/10/27 00:50:42;;;;;;;35.97;15.23;;;;;;;11.80;100.00;102048.50;5072553;28;20025;-47
2022/10/27 00:53:08;;;;;;;30.13;14.82;;;;;;;11.78;100.00;102052.72;5072255;28;20468;-47
2022/10/27 00:55:38;;;;;;;37.17;14.27;;;;;;;11.71;100.00;102059.31;5071457;28;20521;-47
2022/10/27 00:58:06;;;;;;;27.83;14.55;;;;;;;11.78;100.00;102061.34;5072435;28;20028;-48
2022/10/27 01:00:34;;;;;;;33.70;15.55;;;;;;;11.76;100.00;102054.34;5072497;28;20020;-48
2022/10/27 01:03:00;;;;;;;38.53;14.02;;;;;;;11.72;100.00;102055.91;5071431;28;20456;-48
2022/10/27 01:05:27;;;;;;;35.15;14.38;;;;;;;11.72;100.00;102055.03;5072704;28;20127;-45
2022/10/27 01:07:57;;;;;;;33.33;13.98;;;;;;;11.67;100.00;102054.81;5076355;28;20099;-49
2022/10/27 01:10:24;;;;;;;26.33;14.15;;;;;;;11.69;100.00;102063.53;5075378;28;20055;-46
2022/10/27 01:12:49;;;;;;;33.17;15.40;;;;;;;11.73;100.00;102055.09;5076362;28;20032;-48
2022/10/27 01:15:15;;;;;;;36.72;14.65;;;;;;;11.70;100.00;102050.66;5076524;28;20024;-45
2022/10/27 01:17:41;;;;;;;33.35;14.75;;;;;;;11.70;100.00;102057.53;5075424;28;20385;-45
2022/10/27 01:20:20;;;;;;;29.20;14.33;;;;;;;11.69;100.00;102060.94;5076138;28;20017;-45
2022/10/27 01:23:08;;;;;;;34.90;14.55;;;;;;;11.77;100.00;102058.69;5075739;28;20319;-48
2022/10/27 01:25:49;;;;;;;28.15;14.88;;;;;;;11.69;100.00;102064.38;5075701;28;20498;-47
2022/10/27 01:28:45;;;;;;;27.83;14.20;;;;;;;11.72;100.00;102058.47;5076212;28;20036;-48
2022/10/27 01:31:17;;;;;;;32.70;15.10;;;;;;;11.75;100.00;102063.81;5075031;28;20029;-48
2022/10/27 01:33:50;;;;;;;32.90;15.27;;;;;;;11.78;100.00;102066.50;5076019;28;20017;-49
2022/10/27 01:36:30;;;;;;;33.03;15.18;;;;;;;11.82;100.00;102063.22;5076068;28;20082;-48
2022/10/27 01:39:18;;;;;;;35.92;15.38;;;;;;;11.88;100.00;102069.50;5075202;28;20468;-49
2022/10/27 01:41:50;;;;;;;35.92;14.75;;;;;;;11.88;100.00;102064.31;5075644;28;20024;-49
2022/10/27 01:44:32;;;;;;;35.42;15.43;;;;;;;11.93;100.00;102073.16;5075186;28;20044;-47
2022/10/27 01:46:58;;;;;;;28.65;13.85;;;;;;;11.92;100.00;102068.84;5075729;28;20025;-48
2022/10/27 01:49:24;;;;;;;32.92;14.77;;;;;;;11.92;100.00;102071.41;5075628;28;20027;-49
2022/10/27 01:51:49;;;;;;;28.70;13.80;;;;;;;11.98;100.00;102066.53;5074621;28;20475;-47
2022/10/27 01:54:18;;;;;;;31.25;14.23;;;;;;;11.95;100.00;102062.09;5075555;28;20029;-48
2022/10/27 01:57:14;;;;;;;31.73;14.30;;;;;;;11.93;100.00;102068.00;5075570;28;20020;-48
2022/10/27 01:59:59;;;;;;;29.35;12.68;;;;;;;11.95;100.00;102067.28;5053763;28;20051;-48
2022/10/27 02:02:30;;;;;;;30.05;13.05;;;;;;;11.90;100.00;102062.69;5075185;28;20221;-45
2022/10/27 02:05:10;;;;;;;26.15;13.20;;;;;;;11.98;100.00;102064.84;5075202;28;20085;-48
2022/10/27 02:08:00;;;;;;;24.30;12.50;;;;;;;11.91;100.00;102059.31;5074822;28;20082;-48
2022/10/27 02:10:31;;;;;;;28.05;12.38;;;;;;;11.90;100.00;102058.41;5075143;28;20029;-46
2022/10/27 02:12:57;;;;;;;29.40;12.90;;;;;;;11.84;100.00;102048.69;5074138;28;20029;-48
2022/10/27 02:15:44;;;;;;;25.88;13.27;;;;;;;11.85;100.00;102047.88;5075161;28;20107;-47
2022/10/27 02:18:15;;;;;;;27.35;13.60;;;;;;;11.82;100.00;102047.75;5074695;28;20032;-46
2022/10/27 02:20:44;;;;;;;32.13;13.82;;;;;;;11.84;100.00;102051.28;5074267;28;20059;-46
2022/10/27 02:23:15;;;;;;;32.95;13.60;;;;;;;11.85;100.00;102050.47;5074880;28;20028;-46
2022/10/27 02:26:09;;;;;;;34.80;13.07;;;;;;;11.81;100.00;102052.84;5074814;28;20016;-46
2022/10/27 02:28:46;;;;;;;27.85;12.30;;;;;;;11.71;100.00;102046.41;5074341;28;20037;-44
2022/10/27 02:31:14;;;;;;;38.58;12.68;;;;;;;11.66;100.00;102042.75;5074709;28;20029;-43
2022/10/27 02:33:40;;;;;;;22.27;12.32;;;;;;;11.70;100.00;102036.88;5073843;28;20495;-46
2022/10/27 02:36:05;;;;;;;29.00;13.18;;;;;;;11.60;100.00;102043.31;5074888;28;20024;-46
2022/10/27 02:38:30;;;;;;;30.40;13.48;;;;;;;11.66;100.00;102042.75;5074771;28;20078;-45
2022/10/27 02:40:56;;;;;;;31.67;12.55;;;;;;;11.60;100.00;102037.28;5074035;28;20109;-45
2022/10/27 02:43:21;;;;;;;29.58;13.10;;;;;;;11.61;100.00;102034.78;5074625;28;20025;-42
2022/10/27 02:45:46;;;;;;;36.47;14.75;;;;;;;11.74;100.00;102041.38;5074625;28;20032;-47
2022/10/27 02:48:11;;;;;;;29.75;13.73;;;;;;;11.67;100.00;102044.47;5073707;28;20021;-46
2022/10/27 02:50:37;;;;;;;35.10;13.90;;;;;;;11.68;100.00;102041.09;5074311;28;20047;-47
2022/10/27 02:53:02;;;;;;;34.53;14.07;;;;;;;11.72;100.00;102034.38;5074468;28;20093;-47
2022/10/27 02:55:27;;;;;;;31.60;15.07;;;;;;;11.80;100.00;102040.75;5073555;28;20472;-48
2022/10/27 02:57:52;;;;;;;27.50;14.07;;;;;;;11.66;100.00;102035.00;5074207;28;20070;-48
2022/10/27 03:00:18;;;;;;;31.85;14.13;;;;;;;11.75;100.00;102030.22;5074379;28;20036;-48
2022/10/27 03:02:43;;;;;;;28.17;13.65;;;;;;;11.70;100.00;102030.00;5073352;28;20028;-47
2022/10/27 03:05:08;;;;;;;35.40;15.30;;;;;;;11.73;100.00;102024.09;5074333;28;20028;-48
2022/10/27 03:07:34;;;;;;;36.08;14.93;;;;;;;11.73;100.00;102021.50;5073852;28;20089;-48
2022/10/27 03:09:59;;;;;;;29.88;12.93;;;;;;;11.58;100.00;102018.25;5073366;28;20028;-48
2022/10/27 03:12:24;;;;;;;27.25;13.27;;;;;;;11.51;100.00;102017.97;5073936;28;20028;-47
2022/10/27 03:14:49;;;;;;;38.22;15.13;;;;;;;11.59;100.00;102009.69;5073703;28;20025;-46
2022/10/27 03:17:15;;;;;;;30.08;14.27;;;;;;;11.60;100.00;102006.31;5073452;28;20380;-48
2022/10/27 03:19:40;;;;;;;37.97;15.32;;;;;;;11.51;100.00;102004.19;5073676;28;20029;-48
2022/10/27 03:22:05;;;;;;;35.92;15.27;;;;;;;11.60;100.00;102014.06;5073775;28;20035;-48
2022/10/27 03:24:31;;;;;;;32.80;14.75;;;;;;;11.56;100.00;102009.56;5073326;28;20085;-46
2022/10/27 03:26:56;;;;;;;28.65;14.15;;;;;;;11.49;100.00;101998.06;5073806;28;20476;-47
2022/10/27 03:29:22;;;;;;;33.20;15.23;;;;;;;11.53;100.00;102000.00;5072533;28;20073;-45
2022/10/27 03:31:47;;;;;;;33.20;14.63;;;;;;;11.53;100.00;101994.84;5073156;28;20085;-48
2022/10/27 03:34:13;;;;;;;33.13;15.15;;;;;;;11.48;100.00;102002.38;5073482;28;20100;-46
2022/10/27 03:36:38;;;;;;;28.50;14.35;;;;;;;11.51;100.00;102002.47;5073323;28;20020;-45
2022/10/27 03:39:03;;;;;;;32.97;14.43;;;;;;;11.48;100.00;102002.38;5072812;28;20047;-47
2022/10/27 03:41:28;;;;;;;30.63;14.40;;;;;;;11.46;100.00;102003.97;5073446;28;20506;-46
2022/10/27 03:43:54;;;;;;;33.90;14.43;;;;;;;11.46;100.00;101998.81;5072523;28;20068;-46
2022/10/27 03:46:19;;;;;;;31.40;15.20;;;;;;;11.49;100.00;102001.56;5073486;28;20032;-48
2022/10/27 03:48:44;;;;;;;29.73;13.95;;;;;;;11.42;100.00;102002.09;5073280;28;20025;-46
2022/10/27 03:51:09;;;;;;;26.45;14.43;;;;;;;11.49;100.00;101996.41;5072642;28;20097;-47
2022/10/27 03:53:35;;;;;;;28.10;13.48;;;;;;;11.44;100.00;101984.06;5073275;28;20445;-49
2022/10/27 03:56:00;;;;;;;38.95;14.77;;;;;;;11.43;100.00;101996.13;5073366;28;20016;-48
2022/10/27 03:58:25;;;;;;;39.15;15.23;;;;;;;11.41;100.00;101989.97;5072185;28;20032;-45
2022/10/27 04:00:51;;;;;;;28.83;14.10;;;;;;;11.45;100.00;101991.91;5072982;28;20079;-46
2022/10/27 04:03:16;;;;;;;30.02;14.15;;;;;;;11.31;100.00;101986.13;5073153;28;20030;-46
2022/10/27 04:05:41;;;;;;;29.10;14.45;;;;;;;11.28;100.00;101992.84;5072407;28;20023;-47
2022/10/27 04:08:07;;;;;;;31.23;13.23;;;;;;;11.24;100.00;101993.53;5073180;28;20069;-46
2022/10/27 04:10:32;;;;;;;28.65;13.55;;;;;;;11.22;100.00;101997.72;5073032;28;20368;-44
2022/10/27 04:12:57;;;;;;;27.85;12.73;;;;;;;11.14;100.00;101998.28;5072243;28;20048;-46
2022/10/27 04:15:25;;;;;;;34.22;14.50;;;;;;;11.27;100.00;102004.88;5072803;28;20024;-47
2022/10/27 04:17:55;;;;;;;31.70;15.27;;;;;;;11.26;100.00;102005.69;5072513;28;20024;-46
2022/10/27 04:20:21;;;;;;;31.52;14.65;;;;;;;11.25;100.00;102013.38;5072613;28;20025;-46
2022/10/27 04:22:47;;;;;;;29.60;14.77;;;;;;;11.12;100.00;102017.06;5073038;28;20055;-46
2022/10/27 04:25:12;;;;;;;28.83;14.15;;;;;;;11.08;100.00;102016.03;5072696;28;20016;-46
2022/10/27 04:27:38;;;;;;;33.75;15.80;;;;;;;11.10;100.00;102018.69;5072162;28;20460;-46
2022/10/27 04:30:03;;;;;;;37.38;17.25;;;;;;;11.16;100.00;102012.09;5072732;28;20384;-47
2022/10/27 04:32:29;;;;;;;35.38;15.45;;;;;;;11.01;100.00;102016.56;5072135;28;20472;-45
2022/10/27 04:34:54;;;;;;;29.38;15.48;;;;;;;11.03;100.00;102014.94;5072062;28;20031;-46
2022/10/27 04:37:19;;;;;;;28.83;15.13;;;;;;;10.95;100.00;102016.28;5072717;28;20020;-48
2022/10/27 04:39:44;;;;;;;36.95;16.90;;;;;;;10.99;100.00;102015.63;5072127;28;20024;-47
2022/10/27 04:42:10;;;;;;;36.58;17.38;;;;;;;10.94;100.00;102015.41;5071924;28;20028;-44
2022/10/27 04:44:35;;;;;;;32.90;17.13;;;;;;;10.94;100.00;102011.94;5072333;28;20041;-46
2022/10/27 04:47:01;;;;;;;38.72;16.33;;;;;;;10.86;100.00;102012.47;5072171;28;20028;-47
2022/10/27 04:49:26;;;;;;;33.38;16.48;;;;;;;10.82;100.00;102013.13;5071945;28;20031;-47
2022/10/27 04:51:51;;;;;;;30.65;15.77;;;;;;;10.73;100.00;102016.94;5072520;28;20388;-46
2022/10/27 04:54:17;;;;;;;34.60;16.10;;;;;;;10.68;100.00;102017.63;5071799;28;20024;-47
2022/10/27 04:56:42;;;;;;;34.03;17.13;;;;;;;10.70;100.00;102022.84;5072337;28;20086;-46
2022/10/27 04:59:07;;;;;;;36.42;17.05;;;;;;;10.68;100.00;102024.50;5072374;28;20035;-47
2022/10/27 05:01:32;;;;;;;36.05;17.23;;;;;;;10.75;100.00;102018.78;5071468;28;20461;-45
2022/10/27 05:03:58;;;;;;;38.08;20.65;;;;;;;10.86;100.00;102020.19;5072429;28;20028;-46
2022/10/27 05:06:23;;;;;;;33.38;18.60;;;;;;;10.82;100.00;102018.28;5072392;28;20111;-45
2022/10/27 05:08:48;;;;;;;49.15;19.77;;;;;;;10.96;100.00;102020.63;5071520;28;20131;-42
2022/10/27 05:11:14;;;;;;;44.35;20.40;;;;;;;11.01;100.00;102016.56;5072470;28;20494;-45
2022/10/27 05:13:39;;;;;;;35.00;18.55;;;;;;;10.97;100.00;102023.25;5072066;28;20096;-46
2022/10/27 05:16:04;;;;;;;37.78;19.48;;;;;;;10.95;100.00;102024.00;5071357;28;20039;-47
2022/10/27 05:18:30;;;;;;;42.92;19.65;;;;;;;11.06;100.00;102022.81;5072203;28;20099;-45
2022/10/27 05:20:56;;;;;;;35.42;20.55;;;;;;;11.14;100.00;102021.50;5071784;28;20103;-47
2022/10/27 05:23:21;;;;;;;39.00;19.92;;;;;;;11.20;100.00;102015.72;5071838;28;20032;-45
2022/10/27 05:25:54;;;;;;;38.97;19.13;;;;;;;11.22;100.00;102018.38;5072361;28;20032;-46
2022/10/27 05:28:20;;;;;;;38.03;19.58;;;;;;;11.23;100.00;102020.13;5072103;28;20040;-47
2022/10/27 05:30:45;;;;;;;42.78;20.08;;;;;;;11.26;100.00;102020.25;5071427;28;20017;-47
2022/10/27 05:33:11;;;;;;;32.67;17.80;;;;;;;11.30;100.00;102017.03;5072135;28;20119;-47
2022/10/27 05:35:36;;;;;;;37.78;17.88;;;;;;;11.34;100.00;102016.34;5071973;28;20539;-45
2022/10/27 05:38:02;;;;;;;40.15;18.02;;;;;;;11.38;100.00;102023.41;5071738;28;20025;-46
2022/10/27 05:40:33;;;;;;;36.40;18.13;;;;;;;11.39;100.00;102014.88;5071966;28;20025;-45
2022/10/27 05:42:59;;;;;;;32.33;17.08;;;;;;;11.39;100.00;102021.72;5071830;28;20036;-47
2022/10/27 05:45:25;;;;;;;32.92;16.90;;;;;;;11.39;100.00;102019.13;5071203;28;20124;-46
2022/10/27 05:47:58;;;;;;;33.80;16.73;;;;;;;11.35;100.00;102021.59;5072142;28;20104;-45
2022/10/27 05:50:24;;;;;;;32.15;17.25;;;;;;;11.41;100.00;102008.06;5071809;28;20039;-43
2022/10/27 05:52:49;;;;;;;33.28;16.90;;;;;;;11.43;100.00;102011.59;5074008;28;20116;-44
2022/10/27 05:55:14;;;;;;;35.65;17.77;;;;;;;11.42;100.00;102002.09;5075675;28;20392;-46
2022/10/27 05:57:39;;;;;;;33.45;17.48;;;;;;;11.44;100.00;101999.56;5074613;28;20024;-46
2022/10/27 06:00:05;;;;;;;31.52;16.10;;;;;;;11.40;100.00;102002.84;5075376;28;20052;-48
2022/10/27 06:02:31;;;;;;;33.13;16.02;;;;;;;11.40;100.00;102006.31;5075195;28;20364;-48
2022/10/27 06:04:56;;;;;;;28.30;15.27;;;;;;;11.42;100.00;102004.66;5074754;28;20103;-46
2022/10/27 06:07:21;;;;;;;28.05;16.13;;;;;;;11.40;100.00;102002.84;5075143;28;20028;-43
2022/10/27 06:09:46;;;;;;;32.63;15.93;;;;;;;11.38;100.00;102007.94;5075354;28;20031;-45
2022/10/27 06:12:12;;;;;;;29.67;15.43;;;;;;;11.36;100.00;102006.97;5074257;28;20036;-46
2022/10/27 06:14:37;;;;;;;33.75;15.00;;;;;;;11.43;100.00;101996.13;5074908;28;20104;-47
2022/10/27 06:17:02;;;;;;;33.15;15.15;;;;;;;11.43;100.00;101998.69;5075050;28;20035;-45
2022/10/27 06:19:27;;;;;;;25.98;14.45;;;;;;;11.46;100.00;101995.38;5074559;28;20107;-47
2022/10/27 06:21:53;;;;;;;34.45;14.73;;;;;;;11.45;100.00;101994.50;5074998;28;20047;-46
2022/10/27 06:24:18;;;;;;;31.95;14.82;;;;;;;11.45;100.00;101989.34;5074970;28;20111;-46
2022/10/27 06:26:43;;;;;;;26.40;13.43;;;;;;;11.46;100.00;101988.50;5074293;28;20024;-46
2022/10/27 06:29:08;;;;;;;28.00;14.13;;;;;;;11.47;100.00;101997.13;5074779;28;20153;-46
2022/10/27 06:31:34;;;;;;;29.83;13.90;;;;;;;11.48;100.00;101986.00;5074668;28;20349;-45
2022/10/27 06:33:59;;;;;;;22.80;12.40;;;;;;;11.50;100.00;101992.09;5074098;28;20035;-47
2022/10/27 06:36:24;;;;;;;24.85;12.38;;;;;;;11.52;100.00;101990.47;5074763;28;20486;-46
2022/10/27 06:38:49;;;;;;;28.30;13.32;;;;;;;11.53;100.00;101989.66;5074542;28;20104;-46
2022/10/27 06:41:15;;;;;;;24.35;11.80;;;;;;;11.53;100.00;101987.97;5074089;28;20024;-45
2022/10/27 06:43:40;;;;;;;27.55;12.38;;;;;;;11.55;100.00;101988.03;5074318;28;20082;-46
2022/10/27 06:46:06;;;;;;;31.25;12.15;;;;;;;11.51;100.00;101987.00;5074500;28;20127;-47
2022/10/27 06:48:32;;;;;;;23.45;11.60;;;;;;;11.51;100.00;101988.72;5073975;28;20101;-46
2022/10/27 06:50:57;;;;;;;21.20;11.60;;;;;;;11.47;100.00;101990.25;5074550;28;20081;-46
2022/10/27 06:53:22;;;;;;;28.45;14.38;;;;;;;11.44;100.00;101984.97;5074052;28;20062;-47
2022/10/27 06:55:47;;;;;;;22.60;12.30;;;;;;;11.47;100.00;101979.06;5073915;28;20426;-44
2022/10/27 06:58:13;;;;;;;20.70;11.20;;;;;;;11.46;100.00;101974.72;5074180;28;20039;-46
2022/10/27 07:00:38;;;;;;;24.88;11.02;;;;;;;11.48;100.00;101970.50;5074156;28;20090;-46
2022/10/27 07:03:08;;;;;;;26.25;11.98;;;;;;;11.50;100.00;101972.34;5073587;28;20082;-44
2022/10/27 07:05:34;;;;;;;23.92;10.93;;;;;;;11.57;100.00;101970.00;5074190;28;20029;-46
2022/10/27 07:07:59;;;;;;;30.30;11.63;;;;;;;11.59;100.00;101966.69;5073334;28;20024;-46
2022/10/27 07:10:25;;;;;;;30.52;11.75;;;;;;;11.63;100.00;101972.88;5073971;28;20191;-46
2022/10/27 07:12:55;;;;;;;24.75;12.05;;;;;;;11.67;100.00;101977.34;5073789;28;20415;-46
2022/10/27 07:15:21;;;;;;;35.75;11.43;;;;;;;11.69;100.00;101971.41;5073426;28;20032;-46
2022/10/27 07:17:46;;;;;;;24.73;11.07;;;;;;;11.71;100.00;101984.44;5074115;28;20036;-46
2022/10/27 07:20:12;;;;;;;22.60;10.80;;;;;;;11.77;100.00;101978.63;5073542;28;20028;-46
2022/10/27 07:22:40;;;;;;;24.60;10.70;;;;;;;11.83;100.00;101984.94;5073306;28;20024;-44
2022/10/27 07:25:06;;;;;;;24.17;10.88;;;;;;;11.88;100.00;101979.06;5073719;28;20107;-46
2022/10/27 07:27:32;;;;;;;18.23;9.93;;;;;;;11.95;100.00;101986.28;5073261;28;20421;-47
2022/10/27 07:29:57;;;;;;;25.42;10.10;;;;;;;11.98;100.00;101977.00;5073275;28;20021;-43
2022/10/27 07:32:23;;;;;;;22.33;10.25;;;;;;;12.01;100.00;101974.53;5072593;28;20540;-46
2022/10/27 07:34:48;;;;;;;26.15;10.18;;;;;;;12.08;100.00;101970.50;5073377;28;20086;-43
2022/10/27 07:37:13;;;;;;;31.20;11.30;;;;;;;12.15;100.00;101972.53;5073118;28;20013;-47
2022/10/27 07:39:38;;;;;;;29.02;10.88;;;;;;;12.25;100.00;101973.78;5073338;28;20051;-45
2022/10/27 07:42:04;;;;;;;23.45;10.63;;;;;;;12.30;100.00;101971.38;5073130;28;20463;-43
2022/10/27 07:44:29;;;;;;;22.05;10.55;;;;;;;12.42;100.00;101982.22;5072714;28;20076;-46
2022/10/27 07:46:54;;;;;;;24.13;11.15;;;;;;;12.51;100.00;101972.25;5073417;28;20033;-47
2022/10/27 07:49:20;;;;;;;26.85;9.85;;;;;;;12.67;100.00;101975.44;5073165;28;20041;-45
2022/10/27 07:51:45;;;;;;;30.13;10.95;;;;;;;12.81;100.00;101976.84;5072526;28;20039;-46
2022/10/27 07:54:10;;;;;;;22.10;10.40;;;;;;;12.96;100.00;101980.84;5073219;28;20020;-45
2022/10/27 07:56:36;;;;;;;24.45;9.98;;;;;;;13.11;100.00;101986.59;5072785;28;20108;-44
2022/10/27 07:59:01;;;;;;;24.23;10.00;;;;;;;13.20;100.00;101980.00;5072770;28;20464;-44
2022/10/27 08:01:26;;;;;;;24.50;11.05;;;;;;;13.26;100.00;101985.41;5073293;28;20033;-44
2022/10/27 08:03:52;;;;;;;21.25;9.75;;;;;;;13.35;100.00;101988.34;5072843;28;20024;-45
2022/10/27 08:06:18;;;;;;;20.13;9.88;;;;;;;13.41;100.00;101998.94;5072682;28;20036;-47
2022/10/27 08:08:43;;;;;;;17.27;9.15;;;;;;;13.42;100.00;101986.88;5073095;28;20039;-49
2022/10/27 08:11:09;;;;;;;19.17;8.93;;;;;;;13.51;100.00;101979.44;5072082;28;20107;-48
2022/10/27 08:13:34;;;;;;;18.27;7.80;;;;;;;13.59;100.00;101979.72;5072711;28;20028;-49
2022/10/27 08:15:59;;;;;;;21.25;7.93;;;;;;;13.62;100.00;101972.94;5072586;28;20034;-48
2022/10/27 08:18:25;;;;;;;22.40;8.02;;;;;;;13.64;100.00;101976.44;5072010;28;20028;-50
2022/10/27 08:20:50;;;;;;;17.88;8.43;;;;;;;13.71;100.00;101972.38;5072924;28;20574;-47
2022/10/27 08:23:19;;;;;;;19.77;7.25;;;;;;;13.78;100.00;101971.75;5072886;28;20482;-49
2022/10/27 08:25:45;;;;;;;17.38;8.00;;;;;;;13.87;100.00;101975.50;5072001;28;20100;-45
2022/10/27 08:28:11;;;;;;;16.70;7.90;;;;;;;13.97;98.89;101967.22;5072628;28;20451;-49
2022/10/27 08:30:37;;;;;;;20.98;7.60;;;;;;;14.03;99.28;101972.56;5072563;28;20028;-50
2022/10/27 08:33:03;;;;;;;19.65;7.47;;;;;;;14.14;99.49;101976.41;5071949;28;20427;-49
2022/10/27 08:35:31;;;;;;;17.95;8.20;;;;;;;14.29;97.58;101969.97;5072633;28;20016;-49
2022/10/27 08:38:03;;;;;;;16.25;7.60;;;;;;;14.45;97.31;101969.63;5072566;28;20035;-49
2022/10/27 08:40:52;;;;;;;16.90;7.28;;;;;;;14.69;95.21;101971.25;5071928;28;20099;-45
2022/10/27 08:43:38;;;;;;;17.15;8.02;;;;;;;14.93;96.23;101970.25;5021587;28;20041;-50
2022/10/27 08:46:15;;;;;;;16.50;7.65;;;;;;;15.18;93.52;101963.16;5072347;28;20033;-49
2022/10/27 08:48:43;;;;;;;17.13;7.00;;;;;;;15.39;92.09;101961.16;5072409;28;20028;-48
2022/10/27 08:51:14;;;;;;;17.55;6.90;;;;;;;15.55;89.38;101957.25;5072513;28;20035;-49
2022/10/27 08:53:42;;;;;;;18.25;6.88;;;;;;;15.76;87.38;101962.16;5071580;28;20538;-49
2022/10/27 08:56:13;;;;;;;21.13;7.15;;;;;;;15.86;85.85;101949.44;5072347;28;20530;-46
2022/10/27 08:58:42;;;;;;;18.50;6.50;;;;;;;15.93;83.90;101953.94;5072193;28;20089;-48
2022/10/27 09:01:23;;;;;;;18.40;6.43;;;;;;;16.02;86.13;101948.94;5071778;28;20040;-50
2022/10/27 09:04:03;;;;;;;19.25;7.85;;;;;;;16.08;84.52;101938.72;5072613;28;20036;-45
2022/10/27 09:06:32;;;;;;;19.13;6.40;;;;;;;16.22;82.01;101940.78;5072123;28;20025;-46
2022/10/27 09:09:15;;;;;;;19.75;6.65;;;;;;;16.36;82.26;101939.38;5071704;28;20028;-48
2022/10/27 09:11:50;;;;;;;14.85;6.15;;;;;;;16.56;81.07;101925.94;5072123;28;20028;-48
2022/10/27 09:14:26;;;;;;;13.65;6.63;;;;;;;16.68;80.87;101925.31;5072223;28;20111;-47
2022/10/27 09:17:00;;;;;;;14.85;5.78;;;;;;;16.70;79.50;101914.09;5072200;28;20425;-48
2022/10/27 09:19:35;;;;;;;19.52;6.35;;;;;;;16.91;78.43;101912.81;5072261;28;20032;-49
2022/10/27 09:22:05;;;;;;;12.50;5.40;;;;;;;17.04;77.66;101925.25;5071611;28;20031;-50
2022/10/27 09:24:35;;;;;;;16.48;5.97;;;;;;;17.14;77.52;101921.09;5072398;28;20044;-50
2022/10/27 09:27:02;;;;;;;11.88;5.00;;;;;;;17.21;77.61;101919.47;5073455;28;20029;-49
2022/10/27 09:29:30;;;;;;;12.55;5.32;;;;;;;17.38;76.26;101922.44;5075349;28;20490;-48
2022/10/27 09:32:01;;;;;;;;;;;;;;;17.53;78.16;101914.00;5076125;28;20388;-48
2022/10/27 09:34:29;;;;;;;14.07;7.15;;;;;;;17.54;74.82;101910.53;5075589;28;19920;-46
2022/10/27 09:36:55;;;;;;;14.52;5.10;;;;;;;17.62;75.37;101908.94;5075497;28;20043;-48
2022/10/27 09:39:21;;;;;;;13.88;5.43;;;;;;;17.72;74.24;101910.84;5076026;28;20353;-49
2022/10/27 09:41:47;;;;;;;14.77;5.05;;;;;;;17.72;73.33;101907.38;5075567;28;20025;-47
2022/10/27 09:44:22;;;;;;;11.80;4.95;;;;;;;17.74;74.42;101909.16;5075056;28;20036;-50
2022/10/27 09:46:56;;;;;;;12.77;4.80;;;;;;;17.93;74.45;101901.66;5075717;28;20028;-50
2022/10/27 09:49:36;;;;;;;18.27;4.65;;;;;;;18.01;74.15;101904.38;5075334;28;20130;-48
2022/10/27 09:52:09;;;;;;;17.08;5.28;;;;;;;18.18;71.57;101895.09;5075597;28;20028;-47
2022/10/27 09:54:38;;;;;;;13.35;4.35;;;;;;;18.38;71.45;101886.69;5075397;28;20110;-48
2022/10/27 09:57:04;;;;;;;10.13;4.40;;;;;;;18.82;70.05;101888.97;5074987;28;20027;-47
2022/10/27 09:59:31;;;;;;;13.47;4.80;;;;;;;19.07;68.83;101882.34;5075270;28;20464;-47
2022/10/27 10:01:58;;;;;;;16.35;4.75;;;;;;;19.16;68.81;101894.63;5075385;28;20029;-47
2022/10/27 10:04:45;;;;;;;12.33;4.40;;;;;;;19.34;69.53;101898.28;5074871;28;20051;-47
2022/10/27 10:07:28;;;;;;;13.50;4.53;;;;;;;19.66;67.05;101895.09;5075269;28;20352;-50
2022/10/27 10:10:28;;;;;;;13.00;4.30;;;;;;;19.97;69.91;101901.47;5075035;28;20028;-49
2022/10/27 10:13:03;;;;;;;12.65;4.18;;;;;;;20.39;64.98;101897.38;4973788;28;20027;-48
2022/10/27 10:15:29;;;;;;;15.50;4.43;;;;;;;20.30;62.96;101884.25;5059961;28;20457;-48
2022/10/27 10:18:00;;;;;;;11.67;4.53;;;;;;;20.48;62.72;101883.47;5074326;28;20055;-47
2022/10/27 10:20:29;;;;;;;14.27;5.10;;;;;;;20.34;62.94;101883.41;5074813;28;20279;-48
2022/10/27 10:22:55;;;;;;;14.57;4.70;;;;;;;20.37;62.97;101872.97;5074858;28;20020;-51
2022/10/27 10:25:25;;;;;;;16.58;4.28;;;;;;;20.27;62.40;101880.75;5074571;28;20407;-50
2022/10/27 10:28:03;;;;;;;15.05;4.95;;;;;;;20.01;64.21;101884.97;5074934;28;20028;-48
2022/10/27 10:30:35;;;;;;;15.00;4.35;;;;;;;19.82;65.31;101880.44;5074479;28;20115;-47
2022/10/27 10:33:03;;;;;;;16.70;4.30;;;;;;;19.78;64.37;101874.28;5074182;28;20039;-46
2022/10/27 10:35:49;;;;;;;10.38;3.75;;;;;;;19.71;65.72;101878.56;5074913;28;20153;-50
2022/10/27 10:38:24;;;;;;;15.75;4.40;;;;;;;19.51;64.98;101880.13;5074364;28;20054;-51
2022/10/27 10:41:10;;;;;;;13.60;4.88;;;;;;;19.45;66.72;101872.25;5074009;28;20479;-51
2022/10/27 10:43:36;;;;;;;11.13;4.35;;;;;;;19.40;65.64;101869.59;5074522;28;20044;-50
2022/10/27 10:46:02;;;;;;;12.80;4.45;;;;;;;19.41;65.49;101864.38;5073552;28;20081;-49
2022/10/27 10:48:37;;;;;;;12.85;4.45;;;;;;;19.41;66.59;101856.53;5074158;28;20029;-49
2022/10/27 10:51:03;;;;;;;18.30;6.85;;;;;;;19.40;66.27;101862.63;5074341;28;20021;-47
2022/10/27 10:53:32;;;;;;;12.75;4.65;;;;;;;19.51;65.98;101854.88;5073744;28;20039;-51
2022/10/27 10:56:01;;;;;;;10.80;3.60;;;;;;;19.86;66.12;101859.56;5074338;28;20248;-49
2022/10/27 10:58:30;;;;;;;13.00;4.18;;;;;;;19.82;65.17;101854.28;5074094;28;20023;-50
2022/10/27 11:00:58;;;;;;;15.98;3.85;;;;;;;19.78;64.77;101842.00;5073647;28;20021;-48
2022/10/27 11:03:28;;;;;;;14.63;4.10;;;;;;;19.72;65.67;101848.09;5074173;28;20016;-47
2022/10/27 11:06:03;;;;;;;16.30;4.78;;;;;;;19.61;66.39;101845.34;5073909;28;20013;-49
2022/10/27 11:08:34;;;;;;;16.65;3.88;;;;;;;19.46;65.76;101848.75;5073473;28;20089;-52
2022/10/27 11:11:02;;;;;;;15.82;3.83;;;;;;;19.37;67.11;101846.91;5074067;28;20021;-48
2022/10/27 11:13:45;;;;;;;12.18;3.88;;;;;;;19.41;68.30;101846.06;5073775;28;20040;-51